Time;durP1;ratioP1;P1;durP2;ratioP2;P2;SDS_P1;SDS_P2;PMS_P1;PMS_P2;Temp;Humidity;BMP_temperature;BMP_pressure;BME280_temperature;BME280_humidity;BME280_pressure;Samples;Min_cycle;Max_cycle;Signal;HPM_P1;HPM_P2
2021/01/25 00:02:04;;;;;;;;;;;1.80;75.40;;;;;;5093846;28;20065;-69
2021/01/25 00:04:32;;;;;;;;;;;1.70;75.70;;;;;;5087881;28;19932;-69
2021/01/25 00:06:58;;;;;;;;;;;1.70;75.80;;;;;;5073481;28;20307;-69
2021/01/25 00:09:24;;;;;;;;;;;1.80;75.20;;;;;;5072593;28;20337;-69
2021/01/25 00:11:50;;;;;;;;;;;1.80;75.20;;;;;;5070377;28;19993;-69
2021/01/25 00:14:19;;;;;;;;;;;1.80;75.30;;;;;;5072757;28;19928;-69
2021/01/25 00:16:45;;;;;;;;;;;1.80;75.10;;;;;;5070122;28;19928;-69
2021/01/25 00:19:12;;;;;;;;;;;1.80;75.20;;;;;;5073136;28;19978;-69
2021/01/25 00:21:38;;;;;;;;;;;1.80;75.10;;;;;;5069708;28;20205;-69
2021/01/25 00:24:04;;;;;;;;;;;1.70;75.50;;;;;;5073575;28;19928;-69
2021/01/25 00:26:31;;;;;;;;;;;1.70;75.30;;;;;;5070138;28;19928;-69
2021/01/25 00:28:57;;;;;;;;;;;1.70;75.00;;;;;;5072647;28;19989;-69
2021/01/25 00:31:23;;;;;;;;;;;1.70;75.00;;;;;;5064335;28;19971;-69
2021/01/25 00:33:49;;;;;;;;;;;1.70;74.30;;;;;;5053808;28;20280;-69
2021/01/25 00:36:15;;;;;;;;;;;1.70;73.80;;;;;;5051436;28;20046;-69
2021/01/25 00:38:42;;;;;;;;;;;1.80;73.30;;;;;;5072241;28;19924;-69
2021/01/25 00:41:08;;;;;;;;;;;1.80;72.80;;;;;;5073416;28;19998;-69
2021/01/25 00:43:34;;;;;;;;;;;1.80;72.90;;;;;;5069687;28;19981;-69
2021/01/25 00:46:03;;;;;;;;;;;1.80;72.90;;;;;;5072159;28;19928;-69
2021/01/25 00:48:31;;;;;;;;;;;1.70;72.70;;;;;;5069626;28;19962;-69
2021/01/25 00:50:58;;;;;;;;;;;1.70;72.60;;;;;;5072796;28;20288;-69
2021/01/25 00:53:24;;;;;;;;;;;1.80;72.50;;;;;;5069946;28;19932;-69
2021/01/25 00:55:50;;;;;;;;;;;1.80;72.00;;;;;;5071637;28;20315;-69
2021/01/25 00:58:17;;;;;;;;;;;1.80;71.40;;;;;;5069549;28;19994;-69
2021/01/25 01:00:43;;;;;;;;;;;1.80;71.70;;;;;;5071630;28;20418;-69
2021/01/25 01:03:09;;;;;;;;;;;1.80;71.80;;;;;;5069177;28;19985;-69
2021/01/25 01:05:35;;;;;;;;;;;1.80;70.60;;;;;;5071313;28;19933;-69
2021/01/25 01:08:02;;;;;;;;;;;1.90;70.80;;;;;;5069880;28;20035;-69
2021/01/25 01:10:29;;;;;;;;;;;1.90;70.30;;;;;;5071691;28;20046;-69
2021/01/25 01:12:55;;;;;;;;;;;1.90;70.60;;;;;;5071382;28;19924;-69
2021/01/25 01:15:21;;;;;;;;;;;1.80;70.30;;;;;;5067524;28;19982;-69
2021/01/25 01:17:47;;;;;;;;;;;1.80;70.20;;;;;;5072414;28;19928;-68
2021/01/25 01:20:14;;;;;;;;;;;1.80;69.40;;;;;;5069153;28;19992;-68
2021/01/25 01:22:44;;;;;;;;;;;1.80;69.10;;;;;;5071307;28;19939;-68
2021/01/25 01:25:10;;;;;;;;;;;1.80;68.20;;;;;;5069238;28;19928;-68
2021/01/25 01:27:39;;;;;;;;;;;1.80;68.00;;;;;;5072413;28;19929;-68
2021/01/25 01:30:05;;;;;;;;;;;1.70;68.00;;;;;;5069040;28;19986;-68
2021/01/25 01:32:32;;;;;;;;;;;1.70;68.20;;;;;;5072931;28;20015;-68
2021/01/25 01:34:58;;;;;;;;;;;1.70;68.40;;;;;;5068975;28;19935;-68
2021/01/25 01:37:25;;;;;;;;;;;1.60;68.40;;;;;;5072267;28;19964;-68
2021/01/25 01:39:51;;;;;;;;;;;1.60;69.00;;;;;;5067586;28;19928;-68
2021/01/25 01:42:20;;;;;;;;;;;1.50;69.10;;;;;;5071406;28;19928;-68
2021/01/25 01:44:46;;;;;;;;;;;1.50;69.60;;;;;;5071978;28;20277;-68
2021/01/25 01:47:14;;;;;;;;;;;1.40;69.90;;;;;;5067549;28;19978;-68
2021/01/25 01:49:41;;;;;;;;;;;1.40;70.20;;;;;;5070961;28;19932;-68
2021/01/25 01:52:09;;;;;;;;;;;1.40;70.50;;;;;;5068929;28;19956;-68
2021/01/25 01:54:36;;;;;;;;;;;1.30;70.70;;;;;;5072024;28;19989;-68
2021/01/25 01:57:03;;;;;;;;;;;1.30;71.00;;;;;;5068612;28;20253;-68
2021/01/25 01:59:29;;;;;;;;;;;1.30;71.20;;;;;;5070998;28;19994;-70
2021/01/25 02:01:58;;;;;;;;;;;1.30;71.60;;;;;;5068598;28;19924;-68
2021/01/25 02:04:24;;;;;;;;;;;1.30;71.90;;;;;;5071723;28;20376;-68
2021/01/25 02:06:52;;;;;;;;;;;1.30;71.80;;;;;;5067344;28;19928;-68
2021/01/25 02:09:18;;;;;;;;;;;1.20;72.80;;;;;;5071070;28;20316;-68
2021/01/25 02:11:45;;;;;;;;;;;1.10;73.60;;;;;;5068717;28;20390;-68
2021/01/25 02:14:14;;;;;;;;;;;1.00;73.80;;;;;;5071290;28;19940;-68
2021/01/25 02:16:43;;;;;;;;;;;1.00;73.80;;;;;;5070686;28;19929;-68
2021/01/25 02:19:24;;;;;;;;;;;1.00;74.10;;;;;;5070229;28;19954;-69
2021/01/25 02:21:54;;;;;;;;;;;1.00;73.50;;;;;;5071900;28;20026;-68
2021/01/25 02:24:30;;;;;;;;;;;1.00;73.90;;;;;;5067036;28;19925;-68
2021/01/25 02:27:15;;;;;;;;;;;0.90;74.20;;;;;;5072349;28;20032;-69
2021/01/25 02:29:42;;;;;;;;;;;0.80;75.00;;;;;;5071112;28;19932;-68
2021/01/25 02:32:09;;;;;;;;;;;0.70;75.30;;;;;;5075527;28;19928;-68
2021/01/25 02:34:36;;;;;;;;;;;0.60;75.50;;;;;;5072329;28;19929;-69
2021/01/25 02:37:03;;;;;;;;;;;0.60;75.80;;;;;;5075580;28;19975;-69
2021/01/25 02:39:30;;;;;;;;;;;0.50;76.90;;;;;;5084398;28;20344;-70
2021/01/25 02:41:58;;;;;;;;;;;0.40;76.60;;;;;;5094864;28;19928;-69
2021/01/25 02:44:24;;;;;;;;;;;0.30;76.60;;;;;;5082146;28;19974;-69
2021/01/25 02:46:54;;;;;;;;;;;0.30;77.50;;;;;;5075154;28;20393;-69
2021/01/25 02:49:20;;;;;;;;;;;0.20;78.30;;;;;;5071234;28;19979;-69
2021/01/25 02:51:47;;;;;;;;;;;0.10;78.80;;;;;;5074465;28;19951;-69
2021/01/25 02:54:13;;;;;;;;;;;0.10;78.90;;;;;;5071146;28;19928;-69
2021/01/25 02:56:39;;;;;;;;;;;0.00;78.80;;;;;;5074291;28;20301;-69
2021/01/25 02:59:05;;;;;;;;;;;-0.10;79.50;;;;;;5072900;28;19976;-68
2021/01/25 03:01:32;;;;;;;;;;;-0.20;80.00;;;;;;5073408;28;19924;-70
2021/01/25 03:03:59;;;;;;;;;;;-0.20;80.40;;;;;;5075140;28;20007;-69
2021/01/25 03:06:25;;;;;;;;;;;-0.30;80.50;;;;;;5070423;28;20015;-69
2021/01/25 03:08:51;;;;;;;;;;;-0.30;80.80;;;;;;5074873;28;19971;-69
2021/01/25 03:11:19;;;;;;;;;;;-0.30;81.40;;;;;;5071447;28;20053;-69
2021/01/25 03:13:46;;;;;;;;;;;-0.40;81.30;;;;;;5074854;28;19982;-69
2021/01/25 03:16:16;;;;;;;;;;;-0.40;82.00;;;;;;5071358;28;19928;-69
2021/01/25 03:18:43;;;;;;;;;;;-0.50;82.30;;;;;;5073760;28;19928;-69
2021/01/25 03:21:11;;;;;;;;;;;-0.50;82.60;;;;;;5071772;28;19954;-69
2021/01/25 03:23:38;;;;;;;;;;;-0.50;82.80;;;;;;5073418;28;19979;-69
2021/01/25 03:26:05;;;;;;;;;;;-0.50;82.20;;;;;;5070634;28;19995;-68
2021/01/25 03:28:32;;;;;;;;;;;-0.60;81.90;;;;;;5074641;28;19972;-69
2021/01/25 03:30:58;;;;;;;;;;;-0.70;81.90;;;;;;5072750;28;20002;-69
2021/01/25 03:33:25;;;;;;;;;;;-0.80;82.40;;;;;;5074117;28;19939;-69
2021/01/25 03:35:53;;;;;;;;;;;-0.80;82.40;;;;;;5074489;28;19933;-69
2021/01/25 03:38:22;;;;;;;;;;;-0.90;83.00;;;;;;5070687;28;20013;-69
2021/01/25 03:40:50;;;;;;;;;;;-0.90;83.60;;;;;;5074511;28;19925;-69
2021/01/25 03:43:19;;;;;;;;;;;-0.90;83.90;;;;;;5069848;28;19962;-69
2021/01/25 03:45:45;;;;;;;;;;;-0.80;83.70;;;;;;5073376;28;19986;-68
2021/01/25 03:48:11;;;;;;;;;;;-0.80;83.80;;;;;;5069872;28;19932;-68
2021/01/25 03:50:38;;;;;;;;;;;-0.80;84.10;;;;;;5074379;28;19924;-68
2021/01/25 03:53:04;;;;;;;;;;;-0.90;84.40;;;;;;5070939;28;20374;-68
2021/01/25 03:55:30;;;;;;;;;;;-0.90;84.80;;;;;;5074410;28;19932;-68
2021/01/25 03:57:57;;;;;;;;;;;-0.80;84.40;;;;;;5070005;28;19936;-68
2021/01/25 04:00:23;;;;;;;;;;;-0.90;84.90;;;;;;5074028;28;19929;-68
2021/01/25 04:02:49;;;;;;;;;;;-0.90;84.70;;;;;;5071061;28;20299;-68
2021/01/25 04:05:18;;;;;;;;;;;-1.00;85.30;;;;;;5073443;28;20264;-68
2021/01/25 04:07:47;;;;;;;;;;;-1.10;85.90;;;;;;5073679;28;19928;-68
2021/01/25 04:10:13;;;;;;;;;;;-1.10;86.30;;;;;;5087069;28;19924;-68
2021/01/25 04:12:39;;;;;;;;;;;-1.10;86.50;;;;;;5094092;28;19960;-68
2021/01/25 04:15:06;;;;;;;;;;;-1.10;87.10;;;;;;5074450;28;20242;-67
2021/01/25 04:17:34;;;;;;;;;;;-1.00;87.10;;;;;;5073536;28;20283;-67
2021/01/25 04:20:01;;;;;;;;;;;-1.00;86.60;;;;;;5069584;28;19932;-68
2021/01/25 04:22:28;;;;;;;;;;;-1.00;86.80;;;;;;5072510;28;19925;-67
2021/01/25 04:24:57;;;;;;;;;;;-1.00;86.40;;;;;;5069166;28;19994;-68
2021/01/25 04:27:23;;;;;;;;;;;-1.10;86.30;;;;;;5072536;28;19989;-68
2021/01/25 04:29:49;;;;;;;;;;;-1.20;86.90;;;;;;5070073;28;19924;-68
2021/01/25 04:32:16;;;;;;;;;;;-1.30;86.90;;;;;;5073610;28;19960;-68
2021/01/25 04:34:42;;;;;;;;;;;-1.30;87.10;;;;;;5070107;28;20296;-68
2021/01/25 04:37:09;;;;;;;;;;;-1.30;86.70;;;;;;5073672;28;20028;-68
2021/01/25 04:39:37;;;;;;;;;;;-1.20;86.70;;;;;;5073038;28;19976;-68
2021/01/25 04:42:04;;;;;;;;;;;-1.40;86.60;;;;;;5068682;28;19960;-68
2021/01/25 04:44:31;;;;;;;;;;;-1.40;87.10;;;;;;5072283;28;19982;-68
2021/01/25 04:46:58;;;;;;;;;;;-1.50;87.40;;;;;;5069927;28;20036;-68
2021/01/25 04:49:25;;;;;;;;;;;-1.50;87.50;;;;;;5072062;28;20084;-68
2021/01/25 04:51:52;;;;;;;;;;;-1.50;87.90;;;;;;5068491;28;19962;-68
2021/01/25 04:54:19;;;;;;;;;;;-1.60;87.70;;;;;;5073040;28;19936;-68
2021/01/25 04:56:45;;;;;;;;;;;-1.60;87.80;;;;;;5070459;28;19924;-68
2021/01/25 04:59:12;;;;;;;;;;;-1.60;87.90;;;;;;5071784;28;19932;-68
2021/01/25 05:01:38;;;;;;;;;;;-1.70;87.70;;;;;;5069956;28;19964;-68
2021/01/25 05:04:04;;;;;;;;;;;-1.70;88.20;;;;;;5071842;28;19968;-68
2021/01/25 05:06:31;;;;;;;;;;;-1.80;88.50;;;;;;5069167;28;19958;-68
2021/01/25 05:08:57;;;;;;;;;;;-1.80;88.20;;;;;;5072790;28;19985;-68
2021/01/25 05:11:23;;;;;;;;;;;-1.90;87.90;;;;;;5059809;28;20219;-68
2021/01/25 05:14:00;;;;;;;;;;;-2.00;88.20;;;;;;5067480;28;19929;-68
2021/01/25 05:16:28;;;;;;;;;;;-2.00;88.30;;;;;;5072680;28;19972;-68
2021/01/25 05:18:56;;;;;;;;;;;-2.10;89.10;;;;;;5068488;28;19925;-68
2021/01/25 05:21:31;;;;;;;;;;;-2.10;90.00;;;;;;5072808;28;20018;-68
2021/01/25 05:24:05;;;;;;;;;;;-2.10;90.00;;;;;;5068138;28;20502;-67
2021/01/25 05:26:32;;;;;;;;;;;-2.10;89.60;;;;;;5072543;28;19943;-68
2021/01/25 05:28:59;;;;;;;;;;;-2.10;89.90;;;;;;5068101;28;19928;-68
2021/01/25 05:31:25;;;;;;;;;;;-2.10;90.10;;;;;;5072229;28;19924;-68
2021/01/25 05:33:52;;;;;;;;;;;-2.10;90.00;;;;;;5067808;28;19929;-68
2021/01/25 05:36:27;;;;;;;;;;;-2.20;89.60;;;;;;5072295;28;19989;-68
2021/01/25 05:38:56;;;;;;;;;;;-2.20;89.70;;;;;;5066836;28;19928;-68
2021/01/25 05:41:24;;;;;;;;;;;-2.20;89.90;;;;;;5071122;28;19978;-68
2021/01/25 05:43:51;;;;;;;;;;;-2.30;89.40;;;;;;5067939;28;19932;-68
2021/01/25 05:46:20;;;;;;;;;;;-2.30;89.00;;;;;;5071031;28;19982;-68
2021/01/25 05:48:57;;;;;;;;;;;-2.40;90.20;;;;;;5068231;28;20309;-68
2021/01/25 05:51:23;;;;;;;;;;;-2.40;90.50;;;;;;5051273;28;19986;-68
2021/01/25 05:53:49;;;;;;;;;;;-2.40;90.60;;;;;;5052040;28;19987;-68
2021/01/25 05:56:16;;;;;;;;;;;-2.40;90.70;;;;;;5067166;28;20257;-68
2021/01/25 05:58:42;;;;;;;;;;;-2.40;90.80;;;;;;5070857;28;20332;-68
2021/01/25 06:01:09;;;;;;;;;;;-2.40;90.80;;;;;;5068320;28;19929;-68
2021/01/25 06:03:39;;;;;;;;;;;-2.40;90.80;;;;;;5071907;28;19960;-68
2021/01/25 06:06:11;;;;;;;;;;;-2.40;90.60;;;;;;5068022;28;20368;-68
2021/01/25 06:08:52;;;;;;;;;;;-2.50;90.50;;;;;;5070891;28;20305;-68
2021/01/25 06:11:23;;;;;;;;;;;-2.50;90.20;;;;;;5082553;28;20016;-68
2021/01/25 06:13:53;;;;;;;;;;;-2.50;90.30;;;;;;5083962;28;19979;-68
2021/01/25 06:16:23;;;;;;;;;;;-2.60;90.10;;;;;;5057715;28;19985;-68
2021/01/25 06:18:52;;;;;;;;;;;-2.60;90.40;;;;;;5070689;28;20001;-68
2021/01/25 06:21:23;;;;;;;;;;;-2.70;90.20;;;;;;5068066;28;20347;-68
2021/01/25 06:23:51;;;;;;;;;;;-2.70;90.50;;;;;;5069674;28;20342;-68
2021/01/25 06:26:17;;;;;;;;;;;-2.70;90.60;;;;;;5068227;28;20466;-68
2021/01/25 06:28:43;;;;;;;;;;;-2.70;90.60;;;;;;5069887;28;19971;-68
2021/01/25 06:31:10;;;;;;;;;;;-2.70;90.80;;;;;;5069104;28;20285;-68
2021/01/25 06:33:38;;;;;;;;;;;-2.70;90.90;;;;;;5070694;28;19924;-68
2021/01/25 06:36:08;;;;;;;;;;;-2.70;91.00;;;;;;5071768;28;19928;-68
2021/01/25 06:38:35;;;;;;;;;;;-2.70;90.80;;;;;;5067416;28;19967;-68
2021/01/25 06:41:11;;;;;;;;;;;-2.70;90.60;;;;;;5071800;28;19963;-69
2021/01/25 06:43:49;;;;;;;;;;;-2.70;90.40;;;;;;5068324;28;20254;-68
2021/01/25 06:46:19;;;;;;;;;;;-2.70;90.20;;;;;;5070125;28;19924;-68
2021/01/25 06:48:49;;;;;;;;;;;-2.70;90.60;;;;;;5080488;28;19960;-68
2021/01/25 06:51:19;;;;;;;;;;;-2.70;90.60;;;;;;5073218;28;20023;-68
2021/01/25 06:53:50;;;;;;;;;;;-2.70;90.60;;;;;;5068132;28;19928;-68
2021/01/25 06:56:17;;;;;;;;;;;-2.70;91.00;;;;;;5070147;28;19929;-68
2021/01/25 06:58:47;;;;;;;;;;;-2.70;90.90;;;;;;5067033;28;19924;-68
2021/01/25 07:01:22;;;;;;;;;;;-2.70;90.50;;;;;;5071397;28;19981;-68
2021/01/25 07:03:50;;;;;;;;;;;-2.70;90.70;;;;;;5066928;28;20379;-68
2021/01/25 07:06:19;;;;;;;;;;;-2.60;90.50;;;;;;5069087;28;19955;-68
2021/01/25 07:08:55;;;;;;;;;;;-2.60;91.00;;;;;;5064189;28;19924;-68
2021/01/25 07:11:23;;;;;;;;;;;-2.60;90.90;;;;;;5051783;28;20014;-68
2021/01/25 07:13:50;;;;;;;;;;;-2.60;90.90;;;;;;5051859;28;24335;-68
2021/01/25 07:16:16;;;;;;;;;;;-2.60;90.70;;;;;;5073720;28;19925;-68
2021/01/25 07:18:43;;;;;;;;;;;-2.50;90.60;;;;;;5074840;28;20265;-68
2021/01/25 07:21:15;;;;;;;;;;;-2.50;90.90;;;;;;5070464;28;19928;-69
2021/01/25 07:23:45;;;;;;;;;;;-2.40;90.70;;;;;;5073414;28;20009;-68
2021/01/25 07:26:12;;;;;;;;;;;-2.40;90.30;;;;;;5070511;28;19936;-68
2021/01/25 07:28:39;;;;;;;;;;;-2.30;90.80;;;;;;5074528;28;19932;-68
2021/01/25 07:31:05;;;;;;;;;;;-2.30;90.80;;;;;;5070955;28;20373;-68
2021/01/25 07:33:32;;;;;;;;;;;-2.20;90.60;;;;;;5073758;28;20043;-68
2021/01/25 07:35:58;;;;;;;;;;;-2.10;90.30;;;;;;5069937;28;19982;-68
2021/01/25 07:38:28;;;;;;;;;;;-2.00;90.20;;;;;;5073514;28;19963;-68
2021/01/25 07:40:58;;;;;;;;;;;-2.00;90.50;;;;;;5069724;28;19932;-68
2021/01/25 07:43:26;;;;;;;;;;;-1.90;91.20;;;;;;5073491;28;19925;-69
2021/01/25 07:45:54;;;;;;;;;;;-1.60;91.20;;;;;;5069201;28;19928;-68
2021/01/25 07:48:21;;;;;;;;;;;-1.40;90.00;;;;;;5073088;28;19990;-68
2021/01/25 07:50:54;;;;;;;;;;;-1.30;88.50;;;;;;5070220;28;19937;-68
2021/01/25 07:53:21;;;;;;;;;;;-1.20;88.10;;;;;;5065338;28;19960;-68
2021/01/25 07:55:47;;;;;;;;;;;-1.10;87.20;;;;;;5057653;28;19932;-68
2021/01/25 07:58:13;;;;;;;;;;;-1.10;87.40;;;;;;5069528;28;20035;-68
2021/01/25 08:00:42;;;;;;;;;;;-1.20;87.60;;;;;;5064321;28;20342;-68
2021/01/25 08:03:29;;;;;;;;;;;-1.20;88.00;;;;;;5065917;28;19976;-68
2021/01/25 08:05:59;;;;;;;;;;;-1.20;88.10;;;;;;5073605;28;19928;-68
2021/01/25 08:08:26;;;;;;;;;;;-1.10;88.10;;;;;;5067854;28;19925;-69
2021/01/25 08:10:53;;;;;;;;;;;-1.00;87.70;;;;;;5052698;28;19933;-69
2021/01/25 08:13:28;;;;;;;;;;;-1.00;87.10;;;;;;5063533;28;19928;-68
2021/01/25 08:15:54;;;;;;;;;;;-0.90;86.80;;;;;;5072586;28;19980;-69
2021/01/25 08:18:25;;;;;;;;;;;-0.80;86.60;;;;;;5069378;28;19929;-68
2021/01/25 08:20:54;;;;;;;;;;;-0.80;86.60;;;;;;5072445;28;20286;-68
2021/01/25 08:23:26;;;;;;;;;;;-0.70;86.50;;;;;;5069021;28;20344;-68
2021/01/25 08:25:56;;;;;;;;;;;-0.60;86.10;;;;;;5073218;28;19928;-68
2021/01/25 08:28:28;;;;;;;;;;;-0.50;85.40;;;;;;5069951;28;19931;-68
2021/01/25 08:31:05;;;;;;;;;;;-0.40;84.70;;;;;;5072502;28;19928;-68
2021/01/25 08:33:32;;;;;;;;;;;-0.30;84.20;;;;;;5069648;28;20403;-68
2021/01/25 08:36:23;;;;;;;;;;;-0.10;83.40;;;;;;5073208;28;20057;-68
2021/01/25 08:38:49;;;;;;;;;;;0.00;83.70;;;;;;5068986;28;19932;-68
2021/01/25 08:41:32;;;;;;;;;;;0.00;83.70;;;;;;5073330;28;19928;-68
2021/01/25 08:44:03;;;;;;;;;;;0.20;83.30;;;;;;5069505;28;20359;-68
2021/01/25 08:46:33;;;;;;;;;;;0.20;82.60;;;;;;5072871;28;19925;-68
2021/01/25 08:49:15;;;;;;;;;;;0.30;82.10;;;;;;5069797;28;19924;-69
2021/01/25 08:51:42;;;;;;;;;;;0.40;82.20;;;;;;5071654;28;19924;-68
2021/01/25 08:54:18;;;;;;;;;;;0.60;82.20;;;;;;5072178;28;19975;-68
2021/01/25 08:56:44;;;;;;;;;;;0.70;80.90;;;;;;5071754;28;20017;-68
2021/01/25 08:59:15;;;;;;;;;;;0.90;80.30;;;;;;5072573;28;19979;-68
2021/01/25 09:01:43;;;;;;;;;;;1.00;79.90;;;;;;5068373;28;19935;-68
2021/01/25 09:04:09;;;;;;;;;;;1.20;78.70;;;;;;5072795;28;19939;-69
2021/01/25 09:06:48;;;;;;;;;;;1.30;78.30;;;;;;5067768;28;19936;-69
2021/01/25 09:09:14;;;;;;;;;;;1.40;77.70;;;;;;5072402;28;19929;-69
2021/01/25 09:11:43;;;;;;;;;;;1.40;78.10;;;;;;5069158;28;19990;-69
2021/01/25 09:14:10;;;;;;;;;;;1.50;77.90;;;;;;5072000;28;20247;-69
2021/01/25 09:16:36;;;;;;;;;;;1.60;77.70;;;;;;5069433;28;20245;-69
2021/01/25 09:19:03;;;;;;;;;;;1.80;77.30;;;;;;5070568;28;19954;-69
2021/01/25 09:21:33;;;;;;;;;;;1.90;77.10;;;;;;5068677;28;19930;-69
2021/01/25 09:23:59;;;;;;;;;;;2.10;76.80;;;;;;5071070;28;20032;-69
2021/01/25 09:26:25;;;;;;;;;;;2.20;75.90;;;;;;5068721;28;20021;-69
2021/01/25 09:28:52;;;;;;;;;;;2.30;76.00;;;;;;5071434;28;20377;-70
2021/01/25 09:31:22;;;;;;;;;;;2.40;75.50;;;;;;5070272;28;20278;-68
2021/01/25 09:33:48;;;;;;;;;;;2.50;74.10;;;;;;5069830;28;19939;-68
2021/01/25 09:36:15;;;;;;;;;;;2.60;73.00;;;;;;5070671;28;19936;-68
2021/01/25 09:38:41;;;;;;;;;;;2.60;71.80;;;;;;5067718;28;19974;-68
2021/01/25 09:41:07;;;;;;;;;;;2.60;71.70;;;;;;5071150;28;20307;-69
2021/01/25 09:43:34;;;;;;;;;;;2.60;72.80;;;;;;5067205;28;19954;-69
2021/01/25 09:46:00;;;;;;;;;;;2.70;71.50;;;;;;5070882;28;19924;-68
2021/01/25 09:48:26;;;;;;;;;;;2.80;72.20;;;;;;5068007;28;19986;-69
2021/01/25 09:50:52;;;;;;;;;;;2.90;72.60;;;;;;5069688;28;19932;-69
2021/01/25 09:53:19;;;;;;;;;;;3.30;72.80;;;;;;5067080;28;19928;-69
2021/01/25 09:55:45;;;;;;;;;;;3.80;68.70;;;;;;5070978;28;20343;-69
2021/01/25 09:58:11;;;;;;;;;;;4.20;66.70;;;;;;5069205;28;20341;-69
2021/01/25 10:00:40;;;;;;;;;;;4.40;65.50;;;;;;5081204;28;19924;-69
2021/01/25 10:03:08;;;;;;;;;;;4.80;63.70;;;;;;5087392;28;20300;-69
2021/01/25 10:05:35;;;;;;;;;;;5.50;61.60;;;;;;5070603;28;19928;-69
2021/01/25 10:08:01;;;;;;;;;;;6.40;58.90;;;;;;5071672;28;19993;-69
2021/01/25 10:10:28;;;;;;;;;;;6.90;56.60;;;;;;5057355;28;19994;-69
2021/01/25 10:12:55;;;;;;;;;;;7.60;53.20;;;;;;5059593;28;20092;-70
2021/01/25 10:15:22;;;;;;;;;;;8.30;50.20;;;;;;5068094;28;19928;-70
2021/01/25 10:17:50;;;;;;;;;;;9.00;50.30;;;;;;5070647;28;19939;-69
2021/01/25 10:20:16;;;;;;;;;;;9.10;48.00;;;;;;5067487;28;19924;-70
2021/01/25 10:22:43;;;;;;;;;;;9.30;47.70;;;;;;5071376;28;19986;-70
2021/01/25 10:25:18;;;;;;;;;;;9.20;46.60;;;;;;5068193;28;19985;-70
2021/01/25 10:27:44;;;;;;;;;;;9.30;45.80;;;;;;5064252;28;19924;-69
2021/01/25 10:30:12;;;;;;;;;;;9.50;45.60;;;;;;5057845;28;19986;-69
2021/01/25 10:32:38;;;;;;;;;;;9.40;45.70;;;;;;5070369;28;20016;-70
2021/01/25 10:35:06;;;;;;;;;;;9.30;46.70;;;;;;5067780;28;19951;-70
2021/01/25 10:37:33;;;;;;;;;;;9.20;47.50;;;;;;5071352;28;19972;-70
2021/01/25 10:39:59;;;;;;;;;;;9.10;47.40;;;;;;5070508;28;19968;-70
2021/01/25 10:42:26;;;;;;;;;;;9.30;46.00;;;;;;5068185;28;20478;-70
2021/01/25 10:44:52;;;;;;;;;;;9.20;45.60;;;;;;5071460;28;19990;-70
2021/01/25 10:47:18;;;;;;;;;;;8.90;45.80;;;;;;5067382;28;19959;-70
2021/01/25 10:49:48;;;;;;;;;;;9.00;46.80;;;;;;5074428;28;20341;-70
2021/01/25 10:52:15;;;;;;;;;;;9.40;46.00;;;;;;5071038;28;20035;-70
2021/01/25 10:54:41;;;;;;;;;;;9.40;45.50;;;;;;5074878;28;20327;-70
2021/01/25 10:57:08;;;;;;;;;;;9.30;46.10;;;;;;5070294;28;19982;-70
2021/01/25 10:59:34;;;;;;;;;;;9.10;47.10;;;;;;5077192;28;19966;-70
2021/01/25 11:02:02;;;;;;;;;;;8.70;46.50;;;;;;5085115;28;20614;-69
2021/01/25 11:04:29;;;;;;;;;;;8.30;47.30;;;;;;5075369;28;20043;-70
2021/01/25 11:06:55;;;;;;;;;;;7.90;49.10;;;;;;5070374;28;19929;-69
2021/01/25 11:09:24;;;;;;;;;;;7.60;49.00;;;;;;5075283;28;19932;-69
2021/01/25 11:11:52;;;;;;;;;;;7.40;50.10;;;;;;5074978;28;20383;-70
2021/01/25 11:14:18;;;;;;;;;;;7.20;51.30;;;;;;5071552;28;20301;-70
2021/01/25 11:16:45;;;;;;;;;;;7.00;52.40;;;;;;5075570;28;19928;-70
2021/01/25 11:19:12;;;;;;;;;;;6.90;53.90;;;;;;5070656;28;20051;-69
2021/01/25 11:21:40;;;;;;;;;;;6.70;53.60;;;;;;5075006;28;20201;-69
2021/01/25 11:24:09;;;;;;;;;;;6.70;53.20;;;;;;5071147;28;19928;-69
2021/01/25 11:26:38;;;;;;;;;;;6.70;52.90;;;;;;5074936;28;20319;-70
2021/01/25 11:29:05;;;;;;;;;;;6.70;53.00;;;;;;5070367;28;19932;-70
2021/01/25 11:31:34;;;;;;;;;;;6.80;51.90;;;;;;5074860;28;19939;-69
2021/01/25 11:34:00;;;;;;;;;;;6.80;53.00;;;;;;5069967;28;19970;-70
2021/01/25 11:36:27;;;;;;;;;;;7.10;52.80;;;;;;5074695;28;19955;-69
2021/01/25 11:38:54;;;;;;;;;;;7.30;51.60;;;;;;5070412;28;20032;-70
2021/01/25 11:41:22;;;;;;;;;;;7.60;50.90;;;;;;5072949;28;20265;-70
2021/01/25 11:43:48;;;;;;;;;;;8.00;49.60;;;;;;5071876;28;19990;-70
2021/01/25 11:46:15;;;;;;;;;;;8.20;49.10;;;;;;5072042;28;19983;-69
2021/01/25 11:48:41;;;;;;;;;;;8.40;49.30;;;;;;5074533;28;19928;-69
2021/01/25 11:51:08;;;;;;;;;;;8.30;48.10;;;;;;5070929;28;19939;-70
2021/01/25 11:53:34;;;;;;;;;;;8.00;48.20;;;;;;5074284;28;19958;-70
2021/01/25 11:56:01;;;;;;;;;;;7.80;48.50;;;;;;5070889;28;19998;-70
2021/01/25 11:58:27;;;;;;;;;;;7.70;49.40;;;;;;5073175;28;20153;-70
2021/01/25 12:00:53;;;;;;;;;;;7.60;50.40;;;;;;5071991;28;20784;-70
2021/01/25 12:03:20;;;;;;;;;;;7.80;51.80;;;;;;5073185;28;19928;-70
2021/01/25 12:05:46;;;;;;;;;;;8.10;51.50;;;;;;5069701;28;19933;-70
2021/01/25 12:08:12;;;;;;;;;;;8.60;51.40;;;;;;5073843;28;19991;-70
2021/01/25 12:10:39;;;;;;;;;;;9.30;49.80;;;;;;5070389;28;19951;-70
2021/01/25 12:13:06;;;;;;;;;;;10.50;45.00;;;;;;5073200;28;19978;-70
2021/01/25 12:15:35;;;;;;;;;;;11.30;42.10;;;;;;5073984;28;19990;-70
2021/01/25 12:18:03;;;;;;;;;;;11.70;42.40;;;;;;5073192;28;20020;-70
2021/01/25 12:20:32;;;;;;;;;;;12.00;42.30;;;;;;5072953;28;19924;-70
2021/01/25 12:23:01;;;;;;;;;;;12.00;42.40;;;;;;5070223;28;19944;-70
2021/01/25 12:25:27;;;;;;;;;;;13.00;42.00;;;;;;5073924;28;19928;-70
2021/01/25 12:27:54;;;;;;;;;;;13.90;38.70;;;;;;5070180;28;20064;-70
2021/01/25 12:30:21;;;;;;;;;;;14.20;37.60;;;;;;5073992;28;19928;-70
2021/01/25 12:32:47;;;;;;;;;;;14.00;36.90;;;;;;5067711;28;19940;-70
2021/01/25 12:35:17;;;;;;;;;;;13.20;37.30;;;;;;5073777;28;19928;-70
2021/01/25 12:37:44;;;;;;;;;;;12.10;38.00;;;;;;5069234;28;20034;-70
2021/01/25 12:40:11;;;;;;;;;;;11.30;40.90;;;;;;5073234;28;19979;-70
2021/01/25 12:42:38;;;;;;;;;;;10.60;42.50;;;;;;5068712;28;20408;-70
2021/01/25 12:45:05;;;;;;;;;;;10.10;44.10;;;;;;5073689;28;19970;-70
2021/01/25 12:47:34;;;;;;;;;;;9.80;43.20;;;;;;5069891;28;20335;-71
2021/01/25 12:50:02;;;;;;;;;;;9.40;43.40;;;;;;5073364;28;19935;-70
2021/01/25 12:52:31;;;;;;;;;;;9.20;44.40;;;;;;5073117;28;19928;-70
2021/01/25 12:54:57;;;;;;;;;;;9.20;45.60;;;;;;5068292;28;20428;-70
2021/01/25 12:57:24;;;;;;;;;;;9.10;44.70;;;;;;5071859;28;19924;-70
2021/01/25 12:59:50;;;;;;;;;;;8.60;45.00;;;;;;5068201;28;19986;-70
2021/01/25 13:02:16;;;;;;;;;;;8.30;46.90;;;;;;5071632;28;20356;-70
2021/01/25 13:04:43;;;;;;;;;;;8.50;47.90;;;;;;5069694;28;19944;-70
2021/01/25 13:07:09;;;;;;;;;;;9.20;46.80;;;;;;5071309;28;19963;-70
2021/01/25 13:09:39;;;;;;;;;;;10.30;45.20;;;;;;5070177;28;19938;-70
2021/01/25 13:12:05;;;;;;;;;;;11.10;42.40;;;;;;5071879;28;19985;-70
2021/01/25 13:14:31;;;;;;;;;;;11.80;39.70;;;;;;5069403;28;19981;-70
2021/01/25 13:16:57;;;;;;;;;;;12.60;38.70;;;;;;5071406;28;20368;-71
2021/01/25 13:19:26;;;;;;;;;;;13.10;36.20;;;;;;5069470;28;19940;-71
2021/01/25 13:21:52;;;;;;;;;;;13.80;35.70;;;;;;5072212;28;19932;-71
2021/01/25 13:24:18;;;;;;;;;;;14.50;33.00;;;;;;5071526;28;20353;-71
2021/01/25 13:26:45;;;;;;;;;;;15.30;31.90;;;;;;5068870;28;20357;-71
2021/01/25 13:29:11;;;;;;;;;;;16.00;30.50;;;;;;5071989;28;19974;-71
2021/01/25 13:31:39;;;;;;;;;;;16.50;30.00;;;;;;5068254;28;19978;-71
2021/01/25 13:34:06;;;;;;;;;;;17.10;29.70;;;;;;5072694;28;20319;-71
2021/01/25 13:36:32;;;;;;;;;;;17.30;29.50;;;;;;5069267;28;20017;-71
2021/01/25 13:39:01;;;;;;;;;;;17.00;29.80;;;;;;5072260;28;19977;-71
2021/01/25 13:41:27;;;;;;;;;;;16.10;29.90;;;;;;5068610;28;20277;-71
2021/01/25 13:43:54;;;;;;;;;;;14.70;31.80;;;;;;5071792;28;19968;-71
2021/01/25 13:46:20;;;;;;;;;;;13.50;34.10;;;;;;5067549;28;20008;-70
2021/01/25 13:48:46;;;;;;;;;;;12.10;36.50;;;;;;5071886;28;19929;-70
2021/01/25 13:51:13;;;;;;;;;;;11.20;38.90;;;;;;5068086;28;19978;-70
2021/01/25 13:53:40;;;;;;;;;;;10.40;41.10;;;;;;5051769;28;20261;-70
2021/01/25 13:56:08;;;;;;;;;;;9.90;42.80;;;;;;5067345;28;19924;-70
2021/01/25 13:58:34;;;;;;;;;;;9.50;43.40;;;;;;5068463;28;19946;-70
2021/01/25 14:01:01;;;;;;;;;;;9.00;45.40;;;;;;5084590;28;19928;-70
2021/01/25 14:03:27;;;;;;;;;;;8.60;46.10;;;;;;5071699;28;19924;-70
2021/01/25 14:05:54;;;;;;;;;;;8.30;46.00;;;;;;5070410;28;20384;-70
2021/01/25 14:08:20;;;;;;;;;;;7.90;47.30;;;;;;5068360;28;19985;-70
2021/01/25 14:10:49;;;;;;;;;;;7.30;48.60;;;;;;5072061;28;19924;-70
2021/01/25 14:13:16;;;;;;;;;;;7.10;49.90;;;;;;5092117;28;19980;-70
2021/01/25 14:15:44;;;;;;;;;;;6.90;51.70;;;;;;5050806;28;19935;-70
2021/01/25 14:18:10;;;;;;;;;;;6.80;52.30;;;;;;5054231;28;19925;-70
2021/01/25 14:20:37;;;;;;;;;;;6.60;52.50;;;;;;5070829;28;19951;-70
2021/01/25 14:23:03;;;;;;;;;;;6.50;53.30;;;;;;5070045;28;19962;-70
2021/01/25 14:25:29;;;;;;;;;;;6.30;52.80;;;;;;5074773;28;19924;-70
2021/01/25 14:28:05;;;;;;;;;;;6.10;53.70;;;;;;5073760;28;19940;-70